Latest Weather Observations for Cape Nelson

IDV60801

Issued at 7:12 am EDT Saturday 16 October 2021 (issued every 10 minutes, with the page automatically refreshed every 10 minutes)

About weather observations | Map of weather stations | Latest weather observations for VIC | Other Formats
Station Details ID: 090184 Name: CAPE NELSON LIGHTHOUSE Lat: -38.43 Lon: 141.54 Height: 45.4 m
Data from the previous 72 hours. | See also: Recent months at Cape Nelson
Date/Time
EDT
Temp
°C
App
Temp
°C
Dew
Point
°C
Rel
Hum
%
Delta-T
°C
Wind Press
QNH
hPa
Press
MSL
hPa
Rain since
9am
mm
Dir  Spd
km/h
Gust
km/h
Spd
kts
Gust
kts
16/07:00am 11.6 6.7 6.9 73 2.2 SE 22 37 12 20 1011.3 1011.3 2.4
16/06:30am 11.3 4.3 6.0 70 2.5 SSE 32 54 17 29 1011.1 1011.1 2.4
16/06:19am 11.5 5.5 7.2 75 2.1 SSE 28 48 15 26 1010.8 1010.8 2.4
16/06:00am 11.6 6.8 7.3 75 2.1 ESE 22 35 12 19 1010.4 1010.4 2.4
16/05:31am 10.9 5.1 8.0 82 1.4 SE 28 48 15 26 1010.3 1010.3 2.4
16/05:30am 10.9 5.5 8.0 82 1.4 SE 26 48 14 26 1010.3 1010.3 2.4
16/05:00am 11.6 7.2 7.3 75 2.1 SE 20 33 11 18 1010.1 1010.1 2.4
16/04:47am 11.5 5.6 7.4 76 2.0 SSE 28 50 15 27 1010.1 1010.1 2.4
16/04:30am 11.5 6.8 7.6 77 1.9 SE 22 39 12 21 1010.0 1010.0 2.4
16/04:00am 11.6 7.0 6.7 72 2.3 SSE 20 35 11 19 1010.0 1010.0 2.4
16/03:30am 11.9 6.1 8.0 77 1.9 SSE 28 48 15 26 1010.0 1010.0 2.4
16/03:00am 12.1 6.6 7.4 73 2.3 SSE 26 43 14 23 1009.5 1009.5 2.4
16/02:40am 12.0 6.0 7.1 72 2.4 SSE 28 46 15 25 1009.4 1009.4 2.4
16/02:30am 11.7 6.9 7.4 75 2.1 E 22 44 12 24 1009.5 1009.5 2.4
16/02:00am 11.5 6.9 8.2 80 1.6 E 22 44 12 24 1009.5 1009.5 2.4
16/01:30am 11.9 7.2 7.6 75 2.1 NE 22 39 12 21 1009.3 1009.3 2.4
16/01:00am 12.2 7.1 7.5 73 2.3 SE 24 46 13 25 1009.5 1009.5 2.4
16/12:30am 11.8 6.3 7.5 75 2.1 SE 26 44 14 24 1009.4 1009.4 2.4
16/12:20am 11.9 6.5 7.8 76 2.0 SE 26 50 14 27 1009.4 1009.4 2.4
16/12:00am 12.2 6.8 8.1 76 2.0 SE 26 41 14 22 1009.5 1009.5 2.4
 
Date/Time
EDT
Temp
°C
App
Temp
°C
Dew
Point
°C
Rel
Hum
%
Delta-T
°C
Wind Press
QNH
hPa
Press
MSL
hPa
Rain since
9am
mm
Dir  Spd
km/h
Gust
km/h
Spd
kts
Gust
kts
15/11:30pm 12.1 6.3 8.0 76 2.0 SSE 28 46 15 25 1009.4 1009.4 2.4
15/11:00pm 11.9 6.5 7.8 76 2.0 SE 26 48 14 26 1009.1 1009.1 2.4
15/10:30pm 12.1 6.0 8.2 77 1.9 SE 30 48 16 26 1009.0 1008.9 2.4
15/10:22pm 12.3 6.7 8.6 78 1.8 SE 28 48 15 26 1008.9 1008.8 2.4
15/10:00pm 11.8 7.0 9.0 83 1.4 ESE 24 46 13 25 1008.7 1008.6 2.4
15/09:57pm 11.7 7.0 9.1 84 1.3 ENE 24 46 13 25 1008.7 1008.6 2.4
15/09:30pm 11.5 7.2 9.4 87 1.1 NE 22 37 12 20 1008.7 1008.6 2.4
15/09:07pm 11.5 6.7 8.9 84 1.3 ENE 24 50 13 27 1008.1 1008.0 2.4
15/09:00pm 11.4 6.6 9.0 85 1.2 NE 24 35 13 19 1008.3 1008.2 2.4
15/08:30pm 11.5 6.1 9.6 88 1.0 ESE 28 50 15 27 1008.0 1007.9 2.4
15/08:24pm 11.9 7.3 9.5 85 1.2 NE 24 50 13 27 1007.6 1007.5 2.4
15/08:00pm 11.6 6.5 9.3 86 1.2 NE 26 46 14 25 1007.2 1007.1 2.4
15/07:30pm 11.3 7.0 9.4 88 1.0 NNE 22 33 12 18 1007.0 1006.9 2.4
15/07:00pm 11.3 5.9 9.4 88 1.0 SE 28 57 15 31 1006.7 1006.6 2.4
15/06:47pm 11.2 6.2 9.5 89 0.9 ESE 26 52 14 28 1006.6 1006.5 2.2
15/06:30pm 11.6 7.0 9.5 87 1.1 ENE 24 43 13 23 1006.4 1006.3 2.2
15/06:00pm 11.1 6.2 9.9 92 0.6 SSE 26 46 14 25 1006.2 1006.1 2.2
15/05:50pm 10.9 5.6 9.7 92 0.6 SSE 28 48 15 26 1006.2 1006.1 2.2
15/05:30pm 11.1 6.4 9.4 89 0.9 SE 24 39 13 21 1006.1 1006.0 1.2
15/05:00pm 12.0 7.4 8.1 77 1.9 E 22 44 12 24 1005.5 1005.4 0.8
15/04:30pm 11.8 7.3 8.5 80 1.6 NNE 22 35 12 19 1005.8 1005.7 0.8
15/04:08pm 12.1 6.7 7.8 75 2.1 ENE 26 50 14 27 1005.5 1005.4 0.8
15/04:00pm 12.5 7.9 8.2 75 2.1 E 22 43 12 23 1005.3 1005.2 0.8
15/03:32pm 12.9 8.0 8.4 74 2.2 E 24 46 13 25 1005.3 1005.2 0.8
15/03:30pm 12.8 8.2 8.1 73 2.3 E 22 35 12 19 1005.4 1005.3 0.8
15/03:00pm 13.3 8.6 7.7 69 2.8 E 22 43 12 23 1005.4 1005.3 0.8
15/02:30pm 13.2 8.0 7.2 67 2.9 E 24 43 13 23 1005.4 1005.3 0.8
15/02:00pm 12.9 8.1 7.4 69 2.7 E 22 43 12 23 1005.6 1005.5 0.8
15/01:30pm 12.7 8.0 7.8 72 2.4 ESE 22 44 12 24 1005.8 1005.7 0.8
15/01:00pm 12.4 8.2 8.3 76 2.0 E 20 43 11 23 1005.9 1005.8 0.8
15/12:30pm 12.0 7.2 8.7 80 1.6 SSE 24 48 13 26 1005.9 1005.8 0.8
15/12:26pm 12.2 7.4 9.0 81 1.6 SSE 24 48 13 26 1006.0 1005.9 0.8
15/12:00pm 11.8 7.9 9.4 85 1.2 ESE 20 39 11 21 1006.1 1006.0 0.8
15/11:30am 12.7 8.7 9.2 79 1.8 ESE 20 37 11 20 1006.0 1005.9 0.8
15/11:00am 12.0 6.8 8.8 81 1.6 SE 26 46 14 25 1005.9 1005.8 0.8
15/10:45am 11.5 6.0 9.1 85 1.2 SE 28 48 15 26 1005.8 1005.7 0.8
15/10:30am 12.0 7.5 10.2 89 0.9 SE 24 37 13 20 1005.7 1005.6 0.8
15/10:00am 12.0 8.6 10.6 91 0.7 ESE 19 35 10 19 1005.8 1005.7 0.8
15/09:30am 11.9 6.8 10.6 92 0.7 WSW 28 41 15 22 1005.9 1005.8 0.8
15/09:00am 11.9 7.7 9.8 87 1.1 NW 22 39 12 21 1005.7 1005.6 0.2
15/08:30am 12.0 7.9 8.5 79 1.7 WNW 20 37 11 20 1005.9 1005.8 0.0
15/08:00am 11.6 7.5 7.9 78 1.8 NW 19 35 10 19 1005.7 1005.6 0.0
15/07:30am 11.5 7.9 8.4 81 1.5 NNE 17 24 9 13 1005.8 1005.7 0.0
15/07:00am 11.6 8.8 8.5 81 1.5 NNE 13 22 7 12 1005.6 1005.5 0.0
15/06:30am 11.6 8.8 8.5 81 1.5 E 13 22 7 12 1005.5 1005.4 0.0
15/06:00am 11.6 8.7 8.3 80 1.6 SE 13 22 7 12 1005.5 1005.4 0.0
15/05:30am 11.6 5.9 8.3 80 1.6 S 28 35 15 19 1005.4 1005.3 0.0
15/05:00am 12.0 7.7 9.2 83 1.4 S 22 32 12 17 1005.3 1005.2 0.0
15/04:30am 12.1 8.6 8.9 81 1.6 SSE 17 24 9 13 1005.1 1005.0 0.0
15/04:00am 11.8 8.6 8.3 79 1.7 SSE 15 20 8 11 1004.8 1004.7 0.0
15/03:30am 11.9 8.8 8.7 81 1.6 SSE 15 20 8 11 1004.9 1004.8 0.0
15/03:00am 11.5 8.6 8.0 79 1.7 SSE 13 17 7 9 1004.8 1004.7 0.0
15/02:30am 11.6 8.7 8.1 79 1.7 SE 13 19 7 10 1004.9 1004.8 0.0
15/02:00am 11.8 8.6 8.3 79 1.7 SE 15 19 8 10 1005.0 1004.9 0.0
15/01:30am 11.9 9.1 8.4 79 1.7 SE 13 22 7 12 1005.3 1005.2 0.0
15/01:00am 12.0 8.8 8.5 79 1.7 ESE 15 22 8 12 1005.4 1005.3 0.0
15/12:30am 12.0 8.4 8.5 79 1.7 SE 17 24 9 13 1005.5 1005.4 0.0
15/12:00am 12.0 8.5 8.7 80 1.6 ESE 17 24 9 13 1005.7 1005.6 0.0
 
Date/Time
EDT
Temp
°C
App
Temp
°C
Dew
Point
°C
Rel
Hum
%
Delta-T
°C
Wind Press
QNH
hPa
Press
MSL
hPa
Rain since
9am
mm
Dir  Spd
km/h
Gust
km/h
Spd
kts
Gust
kts
14/11:30pm 12.3 9.2 9.0 80 1.7 E 15 22 8 12 1006.0 1005.9 0.0
14/11:00pm 12.1 9.0 8.8 80 1.7 E 15 20 8 11 1006.1 1006.0 0.0
14/10:30pm 12.1 9.4 8.8 80 1.6 E 13 19 7 10 1006.0 1005.9 0.0
14/10:00pm 12.1 8.9 8.6 79 1.7 E 15 22 8 12 1006.0 1005.9 0.0
14/09:30pm 11.8 10.2 8.6 81 1.6 ESE 7 13 4 7 1005.6 1005.5 0.0
14/09:00pm 11.6 9.6 8.5 81 1.5 E 9 13 5 7 1005.4 1005.3 0.0
14/08:30pm 11.0 10.4 7.3 78 1.8 CALM 0 2 0 1 1005.0 1004.9 0.0
14/08:00pm 11.9 9.7 8.0 77 1.9 NNW 9 13 5 7 1004.7 1004.6 0.0
14/07:30pm 12.6 11.8 8.1 74 2.2 SSE 2 6 1 3 1004.4 1004.3 0.0
14/07:00pm 13.0 11.9 8.3 73 2.3 SSE 4 7 2 4 1004.3 1004.2 0.0
14/06:30pm 13.3 11.7 8.8 74 2.3 SSE 7 11 4 6 1004.0 1004.0 0.0
14/06:00pm 13.5 11.1 8.6 72 2.5 S 11 15 6 8 1003.7 1003.7 0.0
14/05:30pm 14.3 11.7 9.3 72 2.6 SSE 13 19 7 10 1003.3 1003.3 0.0
14/05:00pm 14.1 12.1 8.7 70 2.7 ESE 9 15 5 8 1003.4 1003.4 0.0
14/04:30pm 13.9 11.2 8.9 72 2.5 NW 13 22 7 12 1002.9 1002.9 0.0
14/04:00pm 13.5 9.3 8.4 71 2.6 W 20 28 11 15 1003.2 1003.2 0.0
14/03:30pm 13.7 9.8 8.5 71 2.6 WSW 19 28 10 15 1003.5 1003.5 0.0
14/03:00pm 14.3 10.6 9.3 72 2.6 W 19 28 10 15 1003.5 1003.5 0.0
14/02:30pm 14.6 11.4 9.8 73 2.5 W 17 26 9 14 1003.5 1003.5 0.0
14/02:00pm 14.4 10.7 9.4 72 2.6 W 19 28 10 15 1003.5 1003.5 0.0
14/01:30pm 15.2 10.8 8.9 66 3.2 W 22 28 12 15 1003.6 1003.6 0.0
14/01:00pm 15.1 11.1 9.2 68 3.0 WNW 20 28 11 15 1003.7 1003.7 0.0
14/12:30pm 14.1 10.0 8.7 70 2.7 WNW 20 28 11 15 1003.7 1003.7 0.0
14/12:00pm 13.9 9.5 9.1 73 2.5 NW 22 30 12 16 1003.9 1003.9 0.0
14/11:30am 14.2 10.2 10.4 78 2.0 WNW 22 32 12 17 1004.2 1004.1 0.0
14/11:00am 12.9 8.7 9.7 81 1.6 NW 22 30 12 16 1004.0 1004.0 0.0
14/10:30am 11.8 7.5 9.5 86 1.2 NW 22 30 12 16 1004.0 1004.0 0.0
14/10:00am 11.1 7.2 9.5 90 0.8 NW 20 26 11 14 1004.2 1004.1 0.0
14/09:30am 10.3 6.4 9.4 94 0.4 NW 20 26 11 14 1004.0 1004.0 0.0
14/09:00am 9.8 5.8 9.2 96 0.3 NW 20 28 11 15 1004.0 1004.0 10.4
14/08:30am 9.6 6.6 9.1 97 0.2 NW 15 20 8 11 1003.9 1003.9 10.4
14/08:00am 9.3 6.2 8.8 97 0.2 NW 15 22 8 12 1003.8 1003.8 10.4
14/07:30am 8.9 5.0 8.5 97 0.2 NW 19 22 10 12 1003.7 1003.7 10.4
14/07:00am 9.0 5.5 8.6 97 0.2 NW 17 20 9 11 1003.6 1003.6 10.4
14/06:30am 8.9 6.1 8.5 97 0.2 NW 13 17 7 9 1003.4 1003.4 10.4
14/06:00am 9.0 5.8 8.6 97 0.2 NW 15 20 8 11 1003.3 1003.3 10.4
14/05:30am 9.0 6.2 8.6 97 0.2 NW 13 17 7 9 1003.4 1003.4 10.4
14/05:00am 9.2 6.4 8.7 97 0.2 NW 13 17 7 9 1003.6 1003.6 10.4
14/04:30am 9.3 6.2 8.8 97 0.2 NW 15 19 8 10 1003.6 1003.6 10.4
14/04:00am 9.3 6.6 8.8 97 0.2 NW 13 17 7 9 1004.0 1004.0 10.4
14/03:30am 8.8 6.3 8.4 97 0.2 NW 11 13 6 7 1004.3 1004.2 10.4
14/03:00am 9.0 7.0 8.6 97 0.2 NNW 9 11 5 6 1004.6 1004.5 10.4
14/02:30am 9.0 7.0 8.6 97 0.2 NNW 9 11 5 6 1004.7 1004.6 10.4
14/02:00am 8.9 6.9 8.5 97 0.2 NNW 9 11 5 6 1005.0 1004.9 10.4
14/01:30am 9.1 7.1 8.6 97 0.2 N 9 13 5 7 1005.3 1005.2 10.4
14/01:00am 9.3 6.9 8.8 97 0.2 NNW 11 13 6 7 1005.4 1005.3 10.4
14/12:30am 9.5 7.2 9.0 97 0.2 N 11 13 6 7 1005.7 1005.6 10.4
14/12:00am 9.5 7.6 8.9 96 0.3 N 9 13 5 7 1005.6 1005.5 10.2
 
Date/Time
EDT
Temp
°C
App
Temp
°C
Dew
Point
°C
Rel
Hum
%
Delta-T
°C
Wind Press
QNH
hPa
Press
MSL
hPa
Rain since
9am
mm
Dir  Spd
km/h
Gust
km/h
Spd
kts
Gust
kts
13/11:30pm 9.6 7.7 9.0 96 0.3 NNE 9 13 5 7 1005.9 1005.8 10.2
13/11:00pm 9.8 7.9 9.2 96 0.3 N 9 11 5 6 1006.2 1006.1 10.2
13/10:30pm 10.3 8.5 9.5 95 0.4 N 9 13 5 7 1006.5 1006.4 10.2
13/10:00pm 10.5 8.4 9.7 95 0.4 NNE 11 13 6 7 1006.6 1006.5 10.2
13/09:30pm 10.7 9.0 9.8 94 0.5 NE 9 11 5 6 1006.5 1006.4 10.2
13/09:00pm 10.8 9.5 9.9 94 0.5 ENE 7 9 4 5 1006.5 1006.4 10.2
13/08:30pm 10.8 10.8 9.7 93 0.6 CALM 0 0 0 0 1006.4 1006.3 10.2
13/08:00pm 11.1 11.1 9.9 92 0.6 CALM 0 0 0 0 1005.8 1005.7 10.2
13/07:30pm 11.2 9.9 10.0 92 0.6 ENE 7 11 4 6 1005.7 1005.6 9.6
13/07:00pm 11.4 10.3 10.1 92 0.7 ENE 6 6 3 3 1005.4 1005.3 9.6
13/06:30pm 11.4 11.5 10.0 91 0.7 CALM 0 0 0 0 1005.0 1004.9 9.6
13/06:00pm 11.5 11.6 10.1 91 0.7 CALM 0 0 0 0 1005.0 1004.9 9.4
13/05:30pm 11.4 9.4 10.0 91 0.7 WSW 11 17 6 9 1005.0 1004.9 8.8
13/05:00pm 11.4 8.6 10.0 91 0.7 W 15 22 8 12 1005.1 1005.0 8.2
13/04:30pm 11.2 7.3 9.6 90 0.8 W 20 26 11 14 1004.8 1004.7 7.2
13/04:00pm 11.2 6.2 9.6 90 0.8 WNW 26 35 14 19 1004.8 1004.7 5.8
13/03:30pm 11.4 5.3 9.7 89 0.9 W 32 41 17 22 1004.5 1004.4 4.2
13/03:00pm 12.4 7.2 10.1 86 1.2 WNW 28 43 15 23 1004.8 1004.7 2.2
13/02:30pm 14.5 10.2 9.5 72 2.6 WNW 22 37 12 20 1004.4 1004.3 0.2
13/02:00pm 18.7 15.1 8.4 51 5.4 NNW 17 32 9 17 1003.8 1003.8 0.0
13/01:30pm 20.3 16.3 9.2 49 5.9 N 20 33 11 18 1003.5 1003.5 0.0
13/01:00pm 20.1 16.2 8.8 48 6.0 NNE 19 32 10 17 1003.9 1003.9 0.0
13/12:30pm 20.9 15.9 9.5 48 6.1 NNE 26 39 14 21 1003.9 1003.9 0.0
13/12:00pm 21.1 16.8 10.9 52 5.6 NNE 24 39 13 21 1004.4 1004.3 0.0
13/11:30am 20.4 15.7 10.8 54 5.2 NNE 26 39 14 21 1004.7 1004.6 0.0
13/11:04am 19.1 14.2 11.2 60 4.3 NNE 28 52 15 28 1004.7 1004.6 0.0
13/11:00am 19.4 14.7 11.9 62 4.2 NNE 28 43 15 23 1004.8 1004.7 0.0
13/10:30am 18.2 14.6 12.0 67 3.4 NNE 22 39 12 21 1005.2 1005.1 0.0
13/10:00am 16.9 12.4 11.4 70 3.0 NNE 26 39 14 21 1005.4 1005.3 0.0
13/09:37am 16.5 11.6 11.4 72 2.8 NNE 28 46 15 25 1005.4 1005.3 0.0
13/09:30am 16.0 11.1 11.4 74 2.5 NNE 28 44 15 24 1005.4 1005.3 0.0
13/09:00am 13.7 8.6 10.5 81 1.7 NNE 28 35 15 19 1005.6 1005.5 0.0
13/08:30am 12.7 7.4 9.7 82 1.5 NE 28 41 15 22 1005.8 1005.7 0.0
13/08:25am 12.7 7.4 9.9 83 1.4 NE 28 46 15 25 1005.8 1005.7 0.0
13/08:00am 12.2 6.4 9.6 84 1.3 NE 30 39 16 21 1005.9 1005.8 0.0
13/07:30am 12.0 7.3 9.4 84 1.3 NE 24 35 13 19 1006.0 1005.9 0.0

Other formats

Comma delimited format used in spreadsheet applications
http://www.bom.gov.au/fwo/IDV60801/IDV60801.94826.axf

JavaScript Object Notation format (JSON) in row-major order
http://www.bom.gov.au/fwo/IDV60801/IDV60801.94826.json

Data quality

Most of these data are generated automatically and are frequently updated. Quality checks on data are not normally performed. It is possible for incorrect values to appear. Refer to information at About Latest Weather Observations and please check the disclaimer before using these data.